ZAREMBO AK US current weather conditions

sailwx.info

Wind from 055 at 6 knots gusting 13

Air temperature 8.3° C
Dewpoint 5.6° C

Last reported at 2015-Sep-01 16:55 UTC.
Time now 2015-Sep-01 18:12 UTC

Location: N 56°18' W 132°51'.
View on Google Maps.

See reports from other nearby stations

  
Tides and Currents Weather Stations Pressure Air Temp Water Temp Dewpoint Dewpoint Depression Visibility Wind Speed Wind Dir Waves Ship Positions
date/time (UTC)wind fromknots sea level pressurealtimeterstation pressurevisibilityair tempwater tempwave heightnotes
2015-Sep-01 16:55 055 6 gusting 13 8.3
2015-Sep-01 15:55 045 8 gusting 13 7.2
2015-Sep-01 14:55 040 8 gusting 12 6.7
2015-Sep-01 13:55 040 7 gusting 12 6.7
2015-Sep-01 12:55 037 6 gusting 9 6.7
2015-Sep-01 11:55 032 3 gusting 7 6.1
2015-Sep-01 10:55 036 6 gusting 9 6.7
2015-Sep-01 09:55 011 4 gusting 6 6.1
2015-Sep-01 08:55 034 3 gusting 10 6.1
2015-Sep-01 07:55 019 3 gusting 5 6.1
2015-Sep-01 06:55 034 2 gusting 5 6.7
2015-Sep-01 05:55 065 2 gusting 6 6.7
2015-Sep-01 04:55 069 3 gusting 6 6.7
2015-Sep-01 03:55 082 2 gusting 7 6.7
2015-Sep-01 02:55 108 4 gusting 13 7.8
2015-Sep-01 01:55 148 6 gusting 14 8.9
2015-Sep-01 00:55 146 8 gusting 14 9.4
2015-Aug-31 23:55 150 6 gusting 13 10.0
2015-Aug-31 22:55 132 6 gusting 14 9.4
2015-Aug-31 21:55 136 5 gusting 13 10.6
2015-Aug-31 20:55 146 6 gusting 16 7.8
2015-Aug-31 19:55 143 6 gusting 18 8.3
2015-Aug-31 18:55 143 7 gusting 16 7.8
2015-Aug-31 17:55 159 10 gusting 17 7.8
2015-Aug-31 16:55 156 9 gusting 14 7.2
2015-Aug-31 15:55 158 8 gusting 17 7.8
2015-Aug-31 14:55 164 8 gusting 15 7.2
2015-Aug-31 13:55 163 7 gusting 13 6.7
2015-Aug-31 12:55 169 10 gusting 17 7.2
2015-Aug-31 11:55 165 9 gusting 13 7.2
2015-Aug-31 10:55 159 7 gusting 16 6.7
2015-Aug-31 09:55 164 11 gusting 19 7.2
2015-Aug-31 08:55 161 11 gusting 18 7.8
2015-Aug-31 07:55 159 8 gusting 15 7.8
2015-Aug-31 06:55 168 9 gusting 20 7.8
2015-Aug-31 05:55 159 13 gusting 17 8.3
2015-Aug-31 04:55 168 8 gusting 13 7.8
2015-Aug-31 03:55 216 6 gusting 15 7.8
2015-Aug-31 02:55 169 7 gusting 15 9.4
2015-Aug-31 01:55 190 8 gusting 14 10.0
2015-Aug-31 00:55 188 6 gusting 14 10.6
2015-Aug-30 23:55 184 7 gusting 14 10.0
2015-Aug-30 22:55 175 9 gusting 18 8.9
2015-Aug-30 21:55 162 13 gusting 22 10.0
2015-Aug-30 20:55 156 18 gusting 34 9.4
2015-Aug-30 19:55 156 19 gusting 33 7.8
2015-Aug-30 18:55 157 14 gusting 27 7.8